sensor_id;sensor_type;location;lat;lon;timestamp;P1;durP1;ratioP1;P2;durP2;ratioP2
30096;SDS011;16915;51.466;3.610;2024-03-02T00:01:07;0.40;;;0.40;;
30096;SDS011;16915;51.466;3.610;2024-03-02T00:03:36;0.68;;;0.68;;
30096;SDS011;16915;51.466;3.610;2024-03-02T00:06:03;0.57;;;0.57;;
30096;SDS011;16915;51.466;3.610;2024-03-02T00:08:28;1.05;;;0.60;;
30096;SDS011;16915;51.466;3.610;2024-03-02T00:10:58;2.67;;;0.80;;
30096;SDS011;16915;51.466;3.610;2024-03-02T00:13:25;1.38;;;0.60;;
30096;SDS011;16915;51.466;3.610;2024-03-02T00:15:54;0.50;;;0.50;;
30096;SDS011;16915;51.466;3.610;2024-03-02T00:18:34;0.77;;;0.70;;
30096;SDS011;16915;51.466;3.610;2024-03-02T00:21:00;1.65;;;0.63;;
30096;SDS011;16915;51.466;3.610;2024-03-02T00:23:28;1.50;;;0.70;;
30096;SDS011;16915;51.466;3.610;2024-03-02T00:25:56;1.58;;;0.68;;
30096;SDS011;16915;51.466;3.610;2024-03-02T00:28:32;2.25;;;0.68;;
30096;SDS011;16915;51.466;3.610;2024-03-02T00:33:29;1.33;;;0.80;;
30096;SDS011;16915;51.466;3.610;2024-03-02T00:35:57;4.47;;;0.70;;
30096;SDS011;16915;51.466;3.610;2024-03-02T00:38:23;5.68;;;0.90;;
30096;SDS011;16915;51.466;3.610;2024-03-02T00:40:49;1.92;;;0.82;;
30096;SDS011;16915;51.466;3.610;2024-03-02T00:46:06;2.00;;;0.65;;
30096;SDS011;16915;51.466;3.610;2024-03-02T00:48:32;5.65;;;1.15;;
30096;SDS011;16915;51.466;3.610;2024-03-02T00:51:00;3.10;;;1.00;;
30096;SDS011;16915;51.466;3.610;2024-03-02T00:53:28;1.05;;;0.80;;
30096;SDS011;16915;51.466;3.610;2024-03-02T00:55:56;3.28;;;1.00;;
30096;SDS011;16915;51.466;3.610;2024-03-02T00:58:21;3.47;;;0.77;;
30096;SDS011;16915;51.466;3.610;2024-03-02T01:00:47;3.80;;;1.17;;
30096;SDS011;16915;51.466;3.610;2024-03-02T01:03:13;2.47;;;1.40;;
30096;SDS011;16915;51.466;3.610;2024-03-02T01:05:41;2.05;;;1.02;;
30096;SDS011;16915;51.466;3.610;2024-03-02T01:08:08;2.15;;;1.00;;
30096;SDS011;16915;51.466;3.610;2024-03-02T01:10:36;2.83;;;1.08;;
30096;SDS011;16915;51.466;3.610;2024-03-02T01:13:02;3.53;;;1.10;;
30096;SDS011;16915;51.466;3.610;2024-03-02T01:15:27;3.78;;;1.10;;
30096;SDS011;16915;51.466;3.610;2024-03-02T01:17:53;3.67;;;1.33;;
30096;SDS011;16915;51.466;3.610;2024-03-02T01:20:19;6.32;;;1.70;;
30096;SDS011;16915;51.466;3.610;2024-03-02T01:22:45;2.30;;;1.38;;
30096;SDS011;16915;51.466;3.610;2024-03-02T01:25:10;1.85;;;1.00;;
30096;SDS011;16915;51.466;3.610;2024-03-02T01:27:36;4.03;;;1.20;;
30096;SDS011;16915;51.466;3.610;2024-03-02T01:30:01;2.20;;;0.88;;
30096;SDS011;16915;51.466;3.610;2024-03-02T01:32:27;1.25;;;1.00;;
30096;SDS011;16915;51.466;3.610;2024-03-02T01:34:52;3.58;;;1.23;;
30096;SDS011;16915;51.466;3.610;2024-03-02T01:37:18;7.25;;;1.23;;
30096;SDS011;16915;51.466;3.610;2024-03-02T01:39:44;2.65;;;1.20;;
30096;SDS011;16915;51.466;3.610;2024-03-02T01:42:09;3.92;;;1.17;;
30096;SDS011;16915;51.466;3.610;2024-03-02T01:44:38;4.28;;;1.02;;
30096;SDS011;16915;51.466;3.610;2024-03-02T01:47:05;1.30;;;1.17;;
30096;SDS011;16915;51.466;3.610;2024-03-02T01:49:30;2.55;;;1.05;;
30096;SDS011;16915;51.466;3.610;2024-03-02T01:51:57;4.47;;;1.40;;
30096;SDS011;16915;51.466;3.610;2024-03-02T01:54:23;4.25;;;1.17;;
30096;SDS011;16915;51.466;3.610;2024-03-02T01:56:49;1.10;;;1.00;;
30096;SDS011;16915;51.466;3.610;2024-03-02T01:59:14;1.92;;;1.25;;
30096;SDS011;16915;51.466;3.610;2024-03-02T02:01:40;4.13;;;1.25;;
30096;SDS011;16915;51.466;3.610;2024-03-02T02:04:06;3.53;;;1.05;;
30096;SDS011;16915;51.466;3.610;2024-03-02T02:06:32;1.20;;;1.02;;
30096;SDS011;16915;51.466;3.610;2024-03-02T02:08:58;3.53;;;2.05;;
30096;SDS011;16915;51.466;3.610;2024-03-02T02:11:24;1.50;;;1.05;;
30096;SDS011;16915;51.466;3.610;2024-03-02T02:13:50;1.63;;;0.98;;
30096;SDS011;16915;51.466;3.610;2024-03-02T02:16:15;1.30;;;1.20;;
30096;SDS011;16915;51.466;3.610;2024-03-02T02:18:41;2.30;;;0.88;;
30096;SDS011;16915;51.466;3.610;2024-03-02T02:21:07;5.70;;;1.10;;
30096;SDS011;16915;51.466;3.610;2024-03-02T02:23:32;2.03;;;0.93;;
30096;SDS011;16915;51.466;3.610;2024-03-02T02:25:58;1.80;;;1.13;;
30096;SDS011;16915;51.466;3.610;2024-03-02T02:28:23;2.03;;;1.10;;
30096;SDS011;16915;51.466;3.610;2024-03-02T02:30:49;2.15;;;1.05;;
30096;SDS011;16915;51.466;3.610;2024-03-02T02:33:15;1.42;;;0.70;;
30096;SDS011;16915;51.466;3.610;2024-03-02T02:35:40;3.95;;;1.17;;
30096;SDS011;16915;51.466;3.610;2024-03-02T02:38:06;2.05;;;1.17;;
30096;SDS011;16915;51.466;3.610;2024-03-02T02:40:31;1.30;;;1.20;;
30096;SDS011;16915;51.466;3.610;2024-03-02T02:42:58;4.20;;;1.10;;
30096;SDS011;16915;51.466;3.610;2024-03-02T02:45:26;3.35;;;1.17;;
30096;SDS011;16915;51.466;3.610;2024-03-02T02:47:52;1.95;;;1.50;;
30096;SDS011;16915;51.466;3.610;2024-03-02T02:50:17;3.20;;;1.10;;
30096;SDS011;16915;51.466;3.610;2024-03-02T02:52:43;2.67;;;1.27;;
30096;SDS011;16915;51.466;3.610;2024-03-02T02:55:09;3.92;;;1.55;;
30096;SDS011;16915;51.466;3.610;2024-03-02T02:57:36;1.17;;;1.00;;
30096;SDS011;16915;51.466;3.610;2024-03-02T03:00:10;3.33;;;1.42;;
30096;SDS011;16915;51.466;3.610;2024-03-02T03:02:41;5.35;;;1.35;;
30096;SDS011;16915;51.466;3.610;2024-03-02T03:05:11;3.22;;;1.20;;
30096;SDS011;16915;51.466;3.610;2024-03-02T03:07:39;3.03;;;1.70;;
30096;SDS011;16915;51.466;3.610;2024-03-02T03:10:06;2.72;;;1.50;;
30096;SDS011;16915;51.466;3.610;2024-03-02T03:12:32;3.90;;;1.48;;
30096;SDS011;16915;51.466;3.610;2024-03-02T03:14:59;2.35;;;1.60;;
30096;SDS011;16915;51.466;3.610;2024-03-02T03:17:25;6.97;;;2.08;;
30096;SDS011;16915;51.466;3.610;2024-03-02T03:19:51;2.75;;;1.73;;
30096;SDS011;16915;51.466;3.610;2024-03-02T03:22:16;6.53;;;1.90;;
30096;SDS011;16915;51.466;3.610;2024-03-02T03:24:42;6.95;;;2.05;;
30096;SDS011;16915;51.466;3.610;2024-03-02T03:27:08;10.18;;;2.10;;
30096;SDS011;16915;51.466;3.610;2024-03-02T03:29:35;3.95;;;2.22;;
30096;SDS011;16915;51.466;3.610;2024-03-02T03:32:01;3.20;;;1.75;;
30096;SDS011;16915;51.466;3.610;2024-03-02T03:34:27;5.97;;;1.90;;
30096;SDS011;16915;51.466;3.610;2024-03-02T03:36:54;9.55;;;2.13;;
30096;SDS011;16915;51.466;3.610;2024-03-02T03:39:19;5.75;;;2.15;;
30096;SDS011;16915;51.466;3.610;2024-03-02T03:41:45;3.08;;;2.17;;
30096;SDS011;16915;51.466;3.610;2024-03-02T03:44:11;5.78;;;2.47;;
30096;SDS011;16915;51.466;3.610;2024-03-02T03:46:36;4.93;;;2.08;;
30096;SDS011;16915;51.466;3.610;2024-03-02T03:49:02;3.92;;;2.17;;
30096;SDS011;16915;51.466;3.610;2024-03-02T03:51:28;7.22;;;3.00;;
30096;SDS011;16915;51.466;3.610;2024-03-02T03:53:55;10.23;;;1.88;;
30096;SDS011;16915;51.466;3.610;2024-03-02T03:56:21;3.85;;;2.03;;
30096;SDS011;16915;51.466;3.610;2024-03-02T03:58:46;5.97;;;2.13;;
30096;SDS011;16915;51.466;3.610;2024-03-02T04:01:12;6.80;;;2.00;;
30096;SDS011;16915;51.466;3.610;2024-03-02T04:03:38;5.22;;;2.03;;
30096;SDS011;16915;51.466;3.610;2024-03-02T04:06:03;7.97;;;1.95;;
30096;SDS011;16915;51.466;3.610;2024-03-02T04:08:29;2.45;;;2.00;;
30096;SDS011;16915;51.466;3.610;2024-03-02T04:10:55;6.05;;;2.47;;
30096;SDS011;16915;51.466;3.610;2024-03-02T04:13:20;4.70;;;1.60;;
30096;SDS011;16915;51.466;3.610;2024-03-02T04:15:46;6.65;;;2.22;;
30096;SDS011;16915;51.466;3.610;2024-03-02T04:18:11;2.28;;;1.63;;
30096;SDS011;16915;51.466;3.610;2024-03-02T04:20:37;4.57;;;1.83;;
30096;SDS011;16915;51.466;3.610;2024-03-02T04:23:03;8.00;;;2.33;;
30096;SDS011;16915;51.466;3.610;2024-03-02T04:25:29;7.32;;;1.98;;
30096;SDS011;16915;51.466;3.610;2024-03-02T04:27:54;7.35;;;1.95;;
30096;SDS011;16915;51.466;3.610;2024-03-02T04:30:20;8.88;;;1.90;;
30096;SDS011;16915;51.466;3.610;2024-03-02T04:32:45;4.75;;;1.63;;
30096;SDS011;16915;51.466;3.610;2024-03-02T04:35:11;2.95;;;1.60;;
30096;SDS011;16915;51.466;3.610;2024-03-02T04:37:38;3.67;;;1.50;;
30096;SDS011;16915;51.466;3.610;2024-03-02T04:40:03;5.75;;;1.10;;
30096;SDS011;16915;51.466;3.610;2024-03-02T04:42:33;3.50;;;1.45;;
30096;SDS011;16915;51.466;3.610;2024-03-02T04:44:58;3.17;;;1.20;;
30096;SDS011;16915;51.466;3.610;2024-03-02T04:47:24;3.80;;;1.50;;
30096;SDS011;16915;51.466;3.610;2024-03-02T04:49:50;3.72;;;1.20;;
30096;SDS011;16915;51.466;3.610;2024-03-02T04:52:15;5.80;;;1.23;;
30096;SDS011;16915;51.466;3.610;2024-03-02T04:54:41;1.83;;;1.05;;
30096;SDS011;16915;51.466;3.610;2024-03-02T04:57:25;5.72;;;1.00;;
30096;SDS011;16915;51.466;3.610;2024-03-02T04:59:51;3.40;;;1.23;;
30096;SDS011;16915;51.466;3.610;2024-03-02T05:02:16;2.30;;;1.13;;
30096;SDS011;16915;51.466;3.610;2024-03-02T05:04:42;4.35;;;1.05;;
30096;SDS011;16915;51.466;3.610;2024-03-02T05:07:08;1.20;;;1.10;;
30096;SDS011;16915;51.466;3.610;2024-03-02T05:09:33;3.22;;;1.10;;
30096;SDS011;16915;51.466;3.610;2024-03-02T05:11:59;2.90;;;1.00;;
30096;SDS011;16915;51.466;3.610;2024-03-02T05:14:42;4.30;;;1.02;;
30096;SDS011;16915;51.466;3.610;2024-03-02T05:17:07;5.50;;;1.40;;
30096;SDS011;16915;51.466;3.610;2024-03-02T05:19:33;7.75;;;1.33;;
30096;SDS011;16915;51.466;3.610;2024-03-02T05:21:59;2.47;;;1.00;;
30096;SDS011;16915;51.466;3.610;2024-03-02T05:24:24;8.25;;;1.30;;
30096;SDS011;16915;51.466;3.610;2024-03-02T05:26:52;3.35;;;1.17;;
30096;SDS011;16915;51.466;3.610;2024-03-02T05:29:18;7.00;;;1.00;;
30096;SDS011;16915;51.466;3.610;2024-03-02T05:31:44;3.45;;;1.27;;
30096;SDS011;16915;51.466;3.610;2024-03-02T05:34:09;2.42;;;1.27;;
30096;SDS011;16915;51.466;3.610;2024-03-02T05:36:35;3.10;;;1.13;;
30096;SDS011;16915;51.466;3.610;2024-03-02T05:39:00;2.28;;;0.95;;
30096;SDS011;16915;51.466;3.610;2024-03-02T05:41:27;3.22;;;0.90;;
30096;SDS011;16915;51.466;3.610;2024-03-02T05:43:52;5.55;;;1.20;;
30096;SDS011;16915;51.466;3.610;2024-03-02T05:46:18;2.83;;;1.15;;
30096;SDS011;16915;51.466;3.610;2024-03-02T05:48:44;2.63;;;1.15;;
30096;SDS011;16915;51.466;3.610;2024-03-02T05:51:09;2.55;;;0.90;;
30096;SDS011;16915;51.466;3.610;2024-03-02T05:53:35;1.58;;;1.00;;
30096;SDS011;16915;51.466;3.610;2024-03-02T05:56:03;9.13;;;1.83;;
30096;SDS011;16915;51.466;3.610;2024-03-02T05:58:30;2.20;;;1.13;;
30096;SDS011;16915;51.466;3.610;2024-03-02T06:01:14;1.77;;;0.98;;
30096;SDS011;16915;51.466;3.610;2024-03-02T06:03:40;8.70;;;1.35;;
30096;SDS011;16915;51.466;3.610;2024-03-02T06:06:05;1.98;;;1.02;;
30096;SDS011;16915;51.466;3.610;2024-03-02T06:08:31;4.60;;;1.17;;
30096;SDS011;16915;51.466;3.610;2024-03-02T06:10:57;4.22;;;1.25;;
30096;SDS011;16915;51.466;3.610;2024-03-02T06:13:23;1.92;;;1.33;;
30096;SDS011;16915;51.466;3.610;2024-03-02T06:15:50;1.88;;;1.10;;
30096;SDS011;16915;51.466;3.610;2024-03-02T06:18:16;5.97;;;1.00;;
30096;SDS011;16915;51.466;3.610;2024-03-02T06:20:41;5.95;;;1.00;;
30096;SDS011;16915;51.466;3.610;2024-03-02T06:23:07;2.85;;;0.75;;
30096;SDS011;16915;51.466;3.610;2024-03-02T06:25:33;3.53;;;1.25;;
30096;SDS011;16915;51.466;3.610;2024-03-02T06:27:58;4.00;;;0.93;;
30096;SDS011;16915;51.466;3.610;2024-03-02T06:30:24;9.32;;;1.70;;
30096;SDS011;16915;51.466;3.610;2024-03-02T06:32:50;3.50;;;0.73;;
30096;SDS011;16915;51.466;3.610;2024-03-02T06:35:15;4.68;;;0.82;;
30096;SDS011;16915;51.466;3.610;2024-03-02T06:37:41;7.35;;;0.88;;
30096;SDS011;16915;51.466;3.610;2024-03-02T06:40:07;3.03;;;0.88;;
30096;SDS011;16915;51.466;3.610;2024-03-02T06:42:33;2.13;;;1.10;;
30096;SDS011;16915;51.466;3.610;2024-03-02T06:44:59;2.88;;;0.90;;
30096;SDS011;16915;51.466;3.610;2024-03-02T06:47:25;8.32;;;1.05;;
30096;SDS011;16915;51.466;3.610;2024-03-02T06:49:50;8.57;;;1.10;;
30096;SDS011;16915;51.466;3.610;2024-03-02T06:52:16;4.72;;;0.73;;
30096;SDS011;16915;51.466;3.610;2024-03-02T06:54:42;8.05;;;0.90;;
30096;SDS011;16915;51.466;3.610;2024-03-02T06:57:07;4.47;;;0.93;;
30096;SDS011;16915;51.466;3.610;2024-03-02T06:59:33;3.47;;;0.68;;
30096;SDS011;16915;51.466;3.610;2024-03-02T07:01:58;5.10;;;0.93;;
30096;SDS011;16915;51.466;3.610;2024-03-02T07:04:24;0.75;;;0.60;;
30096;SDS011;16915;51.466;3.610;2024-03-02T07:06:50;5.65;;;0.82;;
30096;SDS011;16915;51.466;3.610;2024-03-02T07:09:16;5.30;;;0.77;;
30096;SDS011;16915;51.466;3.610;2024-03-02T07:11:42;2.05;;;0.68;;
30096;SDS011;16915;51.466;3.610;2024-03-02T07:14:08;5.97;;;0.80;;
30096;SDS011;16915;51.466;3.610;2024-03-02T07:16:33;3.70;;;1.13;;
30096;SDS011;16915;51.466;3.610;2024-03-02T07:18:59;5.13;;;0.80;;
30096;SDS011;16915;51.466;3.610;2024-03-02T07:21:26;4.07;;;0.80;;
30096;SDS011;16915;51.466;3.610;2024-03-02T07:23:52;3.60;;;1.40;;
30096;SDS011;16915;51.466;3.610;2024-03-02T07:26:18;4.80;;;0.98;;
30096;SDS011;16915;51.466;3.610;2024-03-02T07:28:46;10.75;;;1.58;;
30096;SDS011;16915;51.466;3.610;2024-03-02T07:31:13;8.45;;;1.50;;
30096;SDS011;16915;51.466;3.610;2024-03-02T07:33:38;2.55;;;0.95;;
30096;SDS011;16915;51.466;3.610;2024-03-02T07:36:04;1.80;;;1.00;;
30096;SDS011;16915;51.466;3.610;2024-03-02T07:38:30;1.27;;;0.63;;
30096;SDS011;16915;51.466;3.610;2024-03-02T07:40:57;3.28;;;0.85;;
30096;SDS011;16915;51.466;3.610;2024-03-02T07:43:23;3.75;;;1.00;;
30096;SDS011;16915;51.466;3.610;2024-03-02T07:45:48;3.33;;;1.00;;
30096;SDS011;16915;51.466;3.610;2024-03-02T07:48:14;1.30;;;0.60;;
30096;SDS011;16915;51.466;3.610;2024-03-02T07:50:40;6.13;;;1.85;;
30096;SDS011;16915;51.466;3.610;2024-03-02T07:53:06;4.47;;;0.80;;
30096;SDS011;16915;51.466;3.610;2024-03-02T07:55:33;7.15;;;1.00;;
30096;SDS011;16915;51.466;3.610;2024-03-02T07:57:59;8.07;;;1.20;;
30096;SDS011;16915;51.466;3.610;2024-03-02T08:00:26;3.20;;;0.93;;
30096;SDS011;16915;51.466;3.610;2024-03-02T08:02:52;6.55;;;1.13;;
30096;SDS011;16915;51.466;3.610;2024-03-02T08:05:18;3.00;;;1.17;;
30096;SDS011;16915;51.466;3.610;2024-03-02T08:07:44;8.95;;;1.60;;
30096;SDS011;16915;51.466;3.610;2024-03-02T08:10:10;7.47;;;1.20;;
30096;SDS011;16915;51.466;3.610;2024-03-02T08:12:36;4.10;;;1.13;;
30096;SDS011;16915;51.466;3.610;2024-03-02T08:15:02;6.45;;;1.40;;
30096;SDS011;16915;51.466;3.610;2024-03-02T08:17:27;7.38;;;1.35;;
30096;SDS011;16915;51.466;3.610;2024-03-02T08:19:53;6.68;;;1.10;;
30096;SDS011;16915;51.466;3.610;2024-03-02T08:22:19;6.45;;;1.48;;
30096;SDS011;16915;51.466;3.610;2024-03-02T08:24:44;5.53;;;1.10;;
30096;SDS011;16915;51.466;3.610;2024-03-02T08:27:10;7.38;;;1.35;;
30096;SDS011;16915;51.466;3.610;2024-03-02T08:29:37;6.50;;;1.08;;
30096;SDS011;16915;51.466;3.610;2024-03-02T08:32:02;5.55;;;1.65;;
30096;SDS011;16915;51.466;3.610;2024-03-02T08:34:28;9.68;;;1.42;;
30096;SDS011;16915;51.466;3.610;2024-03-02T08:36:54;3.92;;;0.93;;
30096;SDS011;16915;51.466;3.610;2024-03-02T08:39:20;4.75;;;1.00;;
30096;SDS011;16915;51.466;3.610;2024-03-02T08:41:45;4.07;;;0.95;;
30096;SDS011;16915;51.466;3.610;2024-03-02T08:44:12;8.50;;;1.52;;
30096;SDS011;16915;51.466;3.610;2024-03-02T08:46:38;6.45;;;1.60;;
30096;SDS011;16915;51.466;3.610;2024-03-02T08:49:04;6.32;;;1.52;;
30096;SDS011;16915;51.466;3.610;2024-03-02T08:51:31;4.28;;;1.52;;
30096;SDS011;16915;51.466;3.610;2024-03-02T08:53:56;4.85;;;1.85;;
30096;SDS011;16915;51.466;3.610;2024-03-02T08:56:23;12.43;;;1.55;;
30096;SDS011;16915;51.466;3.610;2024-03-02T08:58:49;5.88;;;1.60;;
30096;SDS011;16915;51.466;3.610;2024-03-02T09:01:15;5.85;;;1.50;;
30096;SDS011;16915;51.466;3.610;2024-03-02T09:03:42;9.60;;;1.80;;
30096;SDS011;16915;51.466;3.610;2024-03-02T09:06:11;4.55;;;0.93;;
30096;SDS011;16915;51.466;3.610;2024-03-02T09:08:39;6.15;;;1.52;;
30096;SDS011;16915;51.466;3.610;2024-03-02T09:11:05;9.68;;;1.42;;
30096;SDS011;16915;51.466;3.610;2024-03-02T09:13:31;6.95;;;1.65;;
30096;SDS011;16915;51.466;3.610;2024-03-02T09:15:58;4.93;;;1.27;;
30096;SDS011;16915;51.466;3.610;2024-03-02T09:18:23;3.90;;;1.27;;
30096;SDS011;16915;51.466;3.610;2024-03-02T09:20:49;8.43;;;1.52;;
30096;SDS011;16915;51.466;3.610;2024-03-02T09:23:14;14.85;;;1.77;;
30096;SDS011;16915;51.466;3.610;2024-03-02T09:25:40;7.05;;;1.10;;
30096;SDS011;16915;51.466;3.610;2024-03-02T09:28:06;4.47;;;1.10;;
30096;SDS011;16915;51.466;3.610;2024-03-02T09:30:32;8.18;;;1.58;;
30096;SDS011;16915;51.466;3.610;2024-03-02T09:32:58;4.85;;;1.10;;
30096;SDS011;16915;51.466;3.610;2024-03-02T09:35:24;4.28;;;1.48;;
30096;SDS011;16915;51.466;3.610;2024-03-02T09:37:49;5.72;;;1.25;;
30096;SDS011;16915;51.466;3.610;2024-03-02T09:40:15;12.55;;;1.40;;
30096;SDS011;16915;51.466;3.610;2024-03-02T09:42:41;8.25;;;1.42;;
30096;SDS011;16915;51.466;3.610;2024-03-02T09:45:08;4.50;;;1.15;;
30096;SDS011;16915;51.466;3.610;2024-03-02T09:47:34;5.05;;;1.70;;
30096;SDS011;16915;51.466;3.610;2024-03-02T09:50:00;8.13;;;1.45;;
30096;SDS011;16915;51.466;3.610;2024-03-02T09:52:25;6.35;;;1.45;;
30096;SDS011;16915;51.466;3.610;2024-03-02T09:54:51;3.30;;;1.00;;
30096;SDS011;16915;51.466;3.610;2024-03-02T09:57:17;5.75;;;1.40;;
30096;SDS011;16915;51.466;3.610;2024-03-02T09:59:42;4.47;;;1.00;;
30096;SDS011;16915;51.466;3.610;2024-03-02T10:02:10;13.73;;;1.60;;
30096;SDS011;16915;51.466;3.610;2024-03-02T10:04:35;7.50;;;1.17;;
30096;SDS011;16915;51.466;3.610;2024-03-02T10:07:17;6.72;;;1.20;;
30096;SDS011;16915;51.466;3.610;2024-03-02T10:09:47;8.85;;;1.08;;
30096;SDS011;16915;51.466;3.610;2024-03-02T10:12:15;4.17;;;0.97;;
30096;SDS011;16915;51.466;3.610;2024-03-02T10:14:41;4.22;;;1.58;;
30096;SDS011;16915;51.466;3.610;2024-03-02T10:17:08;6.10;;;1.17;;
30096;SDS011;16915;51.466;3.610;2024-03-02T10:19:35;8.82;;;1.13;;
30096;SDS011;16915;51.466;3.610;2024-03-02T10:22:02;5.60;;;1.25;;
30096;SDS011;16915;51.466;3.610;2024-03-02T10:24:38;6.97;;;1.00;;
30096;SDS011;16915;51.466;3.610;2024-03-02T10:27:08;9.27;;;1.23;;
30096;SDS011;16915;51.466;3.610;2024-03-02T10:29:38;4.63;;;1.13;;
30096;SDS011;16915;51.466;3.610;2024-03-02T10:32:05;3.80;;;1.15;;
30096;SDS011;16915;51.466;3.610;2024-03-02T10:34:33;6.43;;;1.38;;
30096;SDS011;16915;51.466;3.610;2024-03-02T10:36:59;5.95;;;1.15;;
30096;SDS011;16915;51.466;3.610;2024-03-02T10:39:25;8.85;;;1.60;;
30096;SDS011;16915;51.466;3.610;2024-03-02T10:41:51;8.18;;;1.20;;
30096;SDS011;16915;51.466;3.610;2024-03-02T10:44:18;3.40;;;0.55;;
30096;SDS011;16915;51.466;3.610;2024-03-02T10:46:44;3.45;;;1.08;;
30096;SDS011;16915;51.466;3.610;2024-03-02T10:49:12;7.47;;;1.33;;
30096;SDS011;16915;51.466;3.610;2024-03-02T10:51:37;5.50;;;1.70;;
30096;SDS011;16915;51.466;3.610;2024-03-02T10:54:03;6.65;;;1.25;;
30096;SDS011;16915;51.466;3.610;2024-03-02T10:56:39;4.20;;;0.70;;
30096;SDS011;16915;51.466;3.610;2024-03-02T10:59:10;6.47;;;1.13;;
30096;SDS011;16915;51.466;3.610;2024-03-02T11:01:53;4.75;;;1.10;;
30096;SDS011;16915;51.466;3.610;2024-03-02T11:04:23;3.50;;;1.23;;
30096;SDS011;16915;51.466;3.610;2024-03-02T11:06:50;7.85;;;1.05;;
30096;SDS011;16915;51.466;3.610;2024-03-02T11:09:20;8.95;;;1.40;;
30096;SDS011;16915;51.466;3.610;2024-03-02T11:11:49;13.18;;;2.22;;
30096;SDS011;16915;51.466;3.610;2024-03-02T11:14:40;6.50;;;0.77;;
30096;SDS011;16915;51.466;3.610;2024-03-02T11:17:09;4.57;;;1.00;;
30096;SDS011;16915;51.466;3.610;2024-03-02T11:19:39;5.88;;;1.30;;
30096;SDS011;16915;51.466;3.610;2024-03-02T11:22:06;7.97;;;1.38;;
30096;SDS011;16915;51.466;3.610;2024-03-02T11:24:33;7.82;;;1.45;;
30096;SDS011;16915;51.466;3.610;2024-03-02T11:26:59;6.93;;;1.25;;
30096;SDS011;16915;51.466;3.610;2024-03-02T11:32:02;8.15;;;1.25;;
30096;SDS011;16915;51.466;3.610;2024-03-02T11:34:31;7.38;;;1.15;;
30096;SDS011;16915;51.466;3.610;2024-03-02T11:37:03;6.75;;;1.50;;
30096;SDS011;16915;51.466;3.610;2024-03-02T11:39:30;2.42;;;0.88;;
30096;SDS011;16915;51.466;3.610;2024-03-02T11:41:56;5.03;;;1.27;;
30096;SDS011;16915;51.466;3.610;2024-03-02T11:44:28;5.97;;;1.23;;
30096;SDS011;16915;51.466;3.610;2024-03-02T11:46:58;6.85;;;0.90;;
30096;SDS011;16915;51.466;3.610;2024-03-02T11:49:38;2.57;;;0.83;;
30096;SDS011;16915;51.466;3.610;2024-03-02T11:52:04;4.85;;;1.15;;
30096;SDS011;16915;51.466;3.610;2024-03-02T11:54:34;8.50;;;1.38;;
30096;SDS011;16915;51.466;3.610;2024-03-02T11:57:04;3.47;;;0.77;;
30096;SDS011;16915;51.466;3.610;2024-03-02T11:59:31;8.40;;;0.80;;
30096;SDS011;16915;51.466;3.610;2024-03-02T12:01:57;3.75;;;1.02;;
30096;SDS011;16915;51.466;3.610;2024-03-02T12:04:24;5.97;;;1.63;;
30096;SDS011;16915;51.466;3.610;2024-03-02T12:06:56;3.33;;;1.08;;
30096;SDS011;16915;51.466;3.610;2024-03-02T12:09:27;5.97;;;1.10;;
30096;SDS011;16915;51.466;3.610;2024-03-02T12:12:06;6.75;;;0.90;;
30096;SDS011;16915;51.466;3.610;2024-03-02T12:14:35;8.02;;;1.08;;
30096;SDS011;16915;51.466;3.610;2024-03-02T12:17:02;6.90;;;1.17;;
30096;SDS011;16915;51.466;3.610;2024-03-02T12:19:29;10.15;;;1.05;;
30096;SDS011;16915;51.466;3.610;2024-03-02T12:21:56;8.52;;;0.82;;
30096;SDS011;16915;51.466;3.610;2024-03-02T12:24:22;6.18;;;1.10;;
30096;SDS011;16915;51.466;3.610;2024-03-02T12:26:49;7.78;;;1.10;;
30096;SDS011;16915;51.466;3.610;2024-03-02T12:29:16;7.65;;;1.65;;
30096;SDS011;16915;51.466;3.610;2024-03-02T12:31:43;7.90;;;1.30;;
30096;SDS011;16915;51.466;3.610;2024-03-02T12:34:12;4.75;;;0.90;;
30096;SDS011;16915;51.466;3.610;2024-03-02T12:36:39;4.63;;;1.05;;
30096;SDS011;16915;51.466;3.610;2024-03-02T12:39:06;7.03;;;1.15;;
30096;SDS011;16915;51.466;3.610;2024-03-02T12:41:35;5.38;;;1.00;;
30096;SDS011;16915;51.466;3.610;2024-03-02T12:44:01;4.43;;;1.25;;
30096;SDS011;16915;51.466;3.610;2024-03-02T12:46:27;8.73;;;1.02;;
30096;SDS011;16915;51.466;3.610;2024-03-02T12:48:53;5.90;;;1.08;;
30096;SDS011;16915;51.466;3.610;2024-03-02T12:51:19;5.40;;;0.88;;
30096;SDS011;16915;51.466;3.610;2024-03-02T12:53:44;4.45;;;0.75;;
30096;SDS011;16915;51.466;3.610;2024-03-02T12:56:10;4.85;;;0.75;;
30096;SDS011;16915;51.466;3.610;2024-03-02T12:58:39;3.05;;;0.65;;
30096;SDS011;16915;51.466;3.610;2024-03-02T13:01:08;11.48;;;0.95;;
30096;SDS011;16915;51.466;3.610;2024-03-02T13:03:39;7.90;;;1.25;;
30096;SDS011;16915;51.466;3.610;2024-03-02T13:06:07;4.57;;;0.90;;
30096;SDS011;16915;51.466;3.610;2024-03-02T13:08:33;7.43;;;1.23;;
30096;SDS011;16915;51.466;3.610;2024-03-02T13:11:00;3.38;;;0.80;;
30096;SDS011;16915;51.466;3.610;2024-03-02T13:13:26;8.10;;;1.00;;
30096;SDS011;16915;51.466;3.610;2024-03-02T13:15:55;4.70;;;1.00;;
30096;SDS011;16915;51.466;3.610;2024-03-02T13:18:21;9.88;;;1.10;;
30096;SDS011;16915;51.466;3.610;2024-03-02T13:20:47;5.35;;;1.05;;
30096;SDS011;16915;51.466;3.610;2024-03-02T13:23:12;5.65;;;1.17;;
30096;SDS011;16915;51.466;3.610;2024-03-02T13:25:39;4.32;;;1.13;;
30096;SDS011;16915;51.466;3.610;2024-03-02T13:28:05;5.85;;;0.98;;
30096;SDS011;16915;51.466;3.610;2024-03-02T13:30:31;9.40;;;1.30;;
30096;SDS011;16915;51.466;3.610;2024-03-02T13:32:57;8.70;;;1.08;;
30096;SDS011;16915;51.466;3.610;2024-03-02T13:35:23;5.75;;;0.90;;
30096;SDS011;16915;51.466;3.610;2024-03-02T13:37:48;9.00;;;0.98;;
30096;SDS011;16915;51.466;3.610;2024-03-02T13:40:15;7.40;;;1.00;;
30096;SDS011;16915;51.466;3.610;2024-03-02T13:42:44;3.67;;;1.10;;
30096;SDS011;16915;51.466;3.610;2024-03-02T13:45:14;5.95;;;0.90;;
30096;SDS011;16915;51.466;3.610;2024-03-02T13:47:39;9.27;;;0.77;;
30096;SDS011;16915;51.466;3.610;2024-03-02T13:50:05;7.50;;;1.10;;
30096;SDS011;16915;51.466;3.610;2024-03-02T13:52:32;6.05;;;1.10;;
30096;SDS011;16915;51.466;3.610;2024-03-02T13:54:57;5.22;;;0.73;;
30096;SDS011;16915;51.466;3.610;2024-03-02T13:57:23;2.00;;;0.80;;
30096;SDS011;16915;51.466;3.610;2024-03-02T13:59:49;4.97;;;0.80;;
30096;SDS011;16915;51.466;3.610;2024-03-02T14:02:15;3.78;;;0.70;;
30096;SDS011;16915;51.466;3.610;2024-03-02T14:04:41;3.55;;;0.98;;
30096;SDS011;16915;51.466;3.610;2024-03-02T14:07:06;5.88;;;1.08;;
30096;SDS011;16915;51.466;3.610;2024-03-02T14:09:32;6.72;;;0.98;;
30096;SDS011;16915;51.466;3.610;2024-03-02T14:11:58;6.35;;;1.27;;
30096;SDS011;16915;51.466;3.610;2024-03-02T14:14:25;7.95;;;1.23;;
30096;SDS011;16915;51.466;3.610;2024-03-02T14:16:52;9.70;;;1.73;;
30096;SDS011;16915;51.466;3.610;2024-03-02T14:19:18;6.72;;;1.20;;
30096;SDS011;16915;51.466;3.610;2024-03-02T14:21:43;7.65;;;1.67;;
30096;SDS011;16915;51.466;3.610;2024-03-02T14:24:09;13.27;;;1.67;;
30096;SDS011;16915;51.466;3.610;2024-03-02T14:26:35;8.57;;;1.58;;
30096;SDS011;16915;51.466;3.610;2024-03-02T14:29:02;8.40;;;1.63;;
30096;SDS011;16915;51.466;3.610;2024-03-02T14:31:28;8.65;;;1.67;;
30096;SDS011;16915;51.466;3.610;2024-03-02T14:33:56;9.27;;;1.40;;
30096;SDS011;16915;51.466;3.610;2024-03-02T14:36:23;6.97;;;1.77;;
30096;SDS011;16915;51.466;3.610;2024-03-02T14:38:48;7.70;;;1.70;;
30096;SDS011;16915;51.466;3.610;2024-03-02T14:41:14;6.05;;;1.45;;
30096;SDS011;16915;51.466;3.610;2024-03-02T14:43:40;9.20;;;1.50;;
30096;SDS011;16915;51.466;3.610;2024-03-02T14:46:06;5.43;;;1.33;;
30096;SDS011;16915;51.466;3.610;2024-03-02T14:48:35;5.13;;;1.63;;
30096;SDS011;16915;51.466;3.610;2024-03-02T14:51:01;5.00;;;1.15;;
30096;SDS011;16915;51.466;3.610;2024-03-02T14:53:27;5.22;;;1.63;;